Terminal Aerodrome Forecast
Issued by NWS

Home | Current Version | Previous Version | Text Only | Print | Product List | Glossary On
Versions: 1 2 3 4 5 6 7 8 9 10 11 12 13 14 15 16
000
FTUS45 KGJT 260534
TAFCNY
TAF
KCNY 260534Z 2606/2706 05005KT P6SM BKN100
     FM261700 01006KT P6SM VCSH BKN100
     FM270000 13005KT P6SM BKN120=

USA.gov is the U.S. government's official web portal to all federal, state and local government web resources and services.